North Marshfield, Massachusetts
Current Conditions -  °F | °C
As of 10:52 PM on Sunday 25 Jan 2015 (Local Time) from KPYM Reporting Station
Clear Clear  
Wind Chill: 17°   Ceiling: Unl
Heat Index: 24°   Visibility: 10mi
Dew Point: 10°   Wind: 6mph
Humidity: 55%   Direction: 350°N
Pressure: 29.99"   Gusts: NA
Location:  42.14°N, 70.77°W
Report Text: KPYM 260352Z AUTO 35005KT 10SM CLR M04/M12 A2999 RMK AO2 SLP155 T10441122
Loading
Personal Weather Stations






























Interactive Weather Map New forecast layout! Learn more

10-Day Weather Forecast

Advertisements
Track Severe Weather on mobile